Time;durP1;ratioP1;P1;durP2;ratioP2;P2;SDS_P1;SDS_P2;PMS_P1;PMS_P2;Temp;Humidity;BMP_temperature;BMP_pressure;BME280_temperature;BME280_humidity;BME280_pressure;Samples;Min_cycle;Max_cycle;Signal;HPM_P1;HPM_P2
2023/06/28 00:00:21;;;;;;;4.10;1.98;;;;;;;;;;6240038;23;20171;-90
2023/06/28 00:03:27;;;;;;;6.00;2.20;;;;;;;;;;6259781;22;20173;-90
2023/06/28 00:06:33;;;;;;;10.95;3.40;;;;;;;;;;6239932;23;20166;-90
2023/06/28 00:09:38;;;;;;;7.47;2.30;;;;;;;;;;6241133;22;20262;-89
2023/06/28 00:12:44;;;;;;;3.88;2.25;;;;;;;;;;6240914;22;20166;-91
2023/06/28 00:15:49;;;;;;;9.60;2.58;;;;;;;;;;6239805;23;20171;-90
2023/06/28 00:19:06;;;;;;;6.63;2.40;;;;;;;;;;6238998;22;20190;-90
2023/06/28 00:22:12;;;;;;;5.85;2.45;;;;;;;;;;6237636;22;20159;-89
2023/06/28 00:25:17;;;;;;;9.27;2.40;;;;;;;;;;6238232;23;20267;-92
2023/06/28 00:28:23;;;;;;;0.20;0.20;;;;;;;;;;6238446;22;20656;-92
2023/06/28 00:31:28;;;;;;;0.57;0.57;;;;;;;;;;6238533;23;20169;-91
2023/06/28 00:34:36;;;;;;;0.40;0.40;;;;;;;;;;6238209;23;20159;-91
2023/06/28 00:37:41;;;;;;;0.30;0.30;;;;;;;;;;6236143;23;20234;-91
2023/06/28 00:40:46;;;;;;;5.57;1.40;;;;;;;;;;6240370;22;20150;-92
2023/06/28 00:43:51;;;;;;;0.60;0.60;;;;;;;;;;6241167;23;20178;-91
2023/06/28 00:46:56;;;;;;;0.55;0.55;;;;;;;;;;6239210;23;20245;-92
2023/06/28 00:50:04;;;;;;;0.22;0.22;;;;;;;;;;6242626;23;20230;-89
2023/06/28 00:53:10;;;;;;;0.70;0.63;;;;;;;;;;6241030;22;20202;-90
2023/06/28 00:56:16;;;;;;;0.30;0.30;;;;;;;;;;6243219;22;20617;-91
2023/06/28 00:59:25;;;;;;;0.25;0.25;;;;;;;;;;6245409;22;20185;-89
2023/06/28 01:02:30;;;;;;;0.40;0.40;;;;;;;;;;6243083;23;20170;-91
2023/06/28 01:05:37;;;;;;;0.20;0.20;;;;;;;;;;6242904;23;20177;-90
2023/06/28 01:08:42;;;;;;;0.30;0.30;;;;;;;;;;6242104;23;20506;-91
2023/06/28 01:11:48;;;;;;;1.55;0.63;;;;;;;;;;6243724;23;20214;-90
2023/06/28 01:14:53;;;;;;;0.25;0.25;;;;;;;;;;6243831;23;20263;-92
2023/06/28 01:18:00;;;;;;;0.20;0.20;;;;;;;;;;6243249;22;20193;-90
2023/06/28 01:21:09;;;;;;;0.30;0.30;;;;;;;;;;6242111;23;20235;-91
2023/06/28 01:24:16;;;;;;;4.60;0.40;;;;;;;;;;6243483;22;20241;-89
2023/06/28 01:27:21;;;;;;;0.80;0.80;;;;;;;;;;6242567;22;20171;-91
2023/06/28 01:30:29;;;;;;;0.65;0.60;;;;;;;;;;6243761;23;20198;-93
2023/06/28 01:33:34;;;;;;;0.30;0.30;;;;;;;;;;6243421;23;20213;-89
2023/06/28 01:36:39;;;;;;;0.40;0.40;;;;;;;;;;6242536;22;20240;-89
2023/06/28 01:39:50;;;;;;;0.20;0.20;;;;;;;;;;6241846;22;20194;-89
2023/06/28 01:42:57;;;;;;;0.35;0.35;;;;;;;;;;6241354;22;20170;-89
2023/06/28 01:46:03;;;;;;;0.70;0.50;;;;;;;;;;6242741;23;20181;-89
2023/06/28 01:49:10;;;;;;;0.20;0.20;;;;;;;;;;6242517;23;20241;-92
2023/06/28 01:52:15;;;;;;;0.20;0.20;;;;;;;;;;6239390;23;20166;-92
2023/06/28 01:55:22;;;;;;;0.32;0.32;;;;;;;;;;6242268;23;20145;-89
2023/06/28 01:58:27;;;;;;;0.30;0.30;;;;;;;;;;6241849;23;20213;-91
2023/06/28 02:01:34;;;;;;;0.30;0.30;;;;;;;;;;6240334;23;20607;-90
2023/06/28 02:04:39;;;;;;;0.25;0.25;;;;;;;;;;6240135;23;20605;-90
2023/06/28 02:07:45;;;;;;;0.68;0.68;;;;;;;;;;6237201;23;20163;-89
2023/06/28 02:10:51;;;;;;;0.35;0.30;;;;;;;;;;6239450;23;20205;-91
2023/06/28 02:13:56;;;;;;;0.30;0.30;;;;;;;;;;6238739;23;20170;-92
2023/06/28 02:17:01;;;;;;;0.35;0.35;;;;;;;;;;6237929;23;20158;-91
2023/06/28 02:20:08;;;;;;;0.35;0.35;;;;;;;;;;6239562;22;20305;-90
2023/06/28 02:23:14;;;;;;;1.25;0.85;;;;;;;;;;6238107;23;20167;-91
2023/06/28 02:26:20;;;;;;;0.30;0.30;;;;;;;;;;6240710;22;20161;-88
2023/06/28 02:29:26;;;;;;;3.92;0.45;;;;;;;;;;6241370;23;20626;-90
2023/06/28 02:32:31;;;;;;;0.25;0.25;;;;;;;;;;6241430;23;20165;-90
2023/06/28 02:35:36;;;;;;;0.22;0.22;;;;;;;;;;6242082;23;20234;-91
2023/06/28 02:38:41;;;;;;;0.30;0.30;;;;;;;;;;6240586;23;20190;-89
2023/06/28 02:41:48;;;;;;;0.47;0.47;;;;;;;;;;6240968;22;20220;-91
2023/06/28 02:44:53;;;;;;;0.20;0.20;;;;;;;;;;6242113;22;20206;-91
2023/06/28 02:47:58;;;;;;;0.20;0.20;;;;;;;;;;6241189;23;20190;-91
2023/06/28 02:51:03;;;;;;;1.10;0.57;;;;;;;;;;6243238;22;20270;-93
2023/06/28 02:54:09;;;;;;;0.32;0.30;;;;;;;;;;6241827;23;20166;-90
2023/06/28 02:57:42;;;;;;;0.35;0.35;;;;;;;;;;6240852;22;20656;-89
2023/06/28 03:00:53;;;;;;;0.32;0.32;;;;;;;;;;6240174;23;20210;-91
2023/06/28 03:03:59;;;;;;;0.40;0.40;;;;;;;;;;6240550;22;20237;-90
2023/06/28 03:07:06;;;;;;;0.35;0.35;;;;;;;;;;6242745;23;20167;-91
2023/06/28 03:10:11;;;;;;;2.08;0.57;;;;;;;;;;6240947;22;20205;-91
2023/06/28 03:13:16;;;;;;;0.40;0.40;;;;;;;;;;6242089;23;20221;-90
2023/06/28 03:16:23;;;;;;;0.57;0.57;;;;;;;;;;6241182;23;20285;-89
2023/06/28 03:19:29;;;;;;;0.52;0.52;;;;;;;;;;6240163;23;20186;-92
2023/06/28 03:22:34;;;;;;;0.30;0.30;;;;;;;;;;6240830;23;20175;-91
2023/06/28 03:25:40;;;;;;;0.28;0.28;;;;;;;;;;6239814;23;20178;-89
2023/06/28 03:28:46;;;;;;;0.30;0.30;;;;;;;;;;6242127;23;20202;-89
2023/06/28 03:31:55;;;;;;;0.22;0.22;;;;;;;;;;6239599;23;20233;-89
2023/06/28 03:35:01;;;;;;;1.45;0.85;;;;;;;;;;6240664;23;20167;-91
2023/06/28 03:38:06;;;;;;;0.38;0.38;;;;;;;;;;6240913;22;20146;-90
2023/06/28 03:41:16;;;;;;;0.50;0.50;;;;;;;;;;6242249;22;20154;-89
2023/06/28 03:44:24;;;;;;;0.20;0.20;;;;;;;;;;6241874;23;20255;-90
2023/06/28 03:47:31;;;;;;;0.32;0.32;;;;;;;;;;6242053;23;20630;-92
2023/06/28 03:50:36;;;;;;;0.30;0.30;;;;;;;;;;6239832;23;20223;-90
2023/06/28 03:53:42;;;;;;;0.50;0.50;;;;;;;;;;6241219;22;20166;-90
2023/06/28 04:01:07;;;;;;;0.38;0.38;;;;;;;;;;6258524;22;20179;-90
2023/06/28 04:04:14;;;;;;;0.38;0.38;;;;;;;;;;6239582;22;20220;-90
2023/06/28 04:07:24;;;;;;;0.30;0.30;;;;;;;;;;6240388;23;20605;-90
2023/06/28 04:10:29;;;;;;;0.20;0.20;;;;;;;;;;6241763;23;20198;-92
2023/06/28 04:13:37;;;;;;;0.40;0.40;;;;;;;;;;6244027;22;20194;-90
2023/06/28 04:16:43;;;;;;;0.50;0.50;;;;;;;;;;6243540;22;20155;-92
2023/06/28 04:20:14;;;;;;;0.35;0.35;;;;;;;;;;6243773;22;20174;-90
2023/06/28 04:23:20;;;;;;;0.43;0.43;;;;;;;;;;6243385;23;20174;-90
2023/06/28 04:26:25;;;;;;;0.73;0.63;;;;;;;;;;6243357;23;20225;-91
2023/06/28 04:29:30;;;;;;;0.40;0.40;;;;;;;;;;6242650;23;20242;-89
2023/06/28 04:32:44;;;;;;;0.25;0.25;;;;;;;;;;6241614;23;20186;-91
2023/06/28 04:35:50;;;;;;;0.57;0.50;;;;;;;;;;6243319;23;20244;-89
2023/06/28 04:38:57;;;;;;;0.30;0.30;;;;;;;;;;6243785;23;20151;-90
2023/06/28 04:42:03;;;;;;;0.32;0.32;;;;;;;;;;6242845;23;20167;-91
2023/06/28 04:45:09;;;;;;;0.30;0.30;;;;;;;;;;6244023;22;20169;-91
2023/06/28 04:48:15;;;;;;;0.40;0.40;;;;;;;;;;6244313;23;20250;-89
2023/06/28 04:51:21;;;;;;;0.38;0.38;;;;;;;;;;6244078;23;20174;-90
2023/06/28 04:54:28;;;;;;;0.32;0.30;;;;;;;;;;6245476;23;20209;-90
2023/06/28 04:57:33;;;;;;;0.20;0.20;;;;;;;;;;6243743;22;20151;-89
2023/06/28 05:00:38;;;;;;;0.30;0.30;;;;;;;;;;6243404;22;20213;-89
2023/06/28 05:03:47;;;;;;;0.50;0.50;;;;;;;;;;6244556;23;20213;-88
2023/06/28 05:06:52;;;;;;;0.55;0.50;;;;;;;;;;6241778;23;20189;-89
2023/06/28 05:09:59;;;;;;;0.30;0.30;;;;;;;;;;6241770;23;20193;-88
2023/06/28 05:13:04;;;;;;;4.05;1.15;;;;;;;;;;6241938;23;20166;-90
2023/06/28 05:16:09;;;;;;;0.20;0.20;;;;;;;;;;6241328;22;20170;-90
2023/06/28 05:19:20;;;;;;;1.65;0.93;;;;;;;;;;6245632;23;20174;-89
2023/06/28 05:22:29;;;;;;;0.40;0.40;;;;;;;;;;6242952;23;20243;-89
2023/06/28 05:25:35;;;;;;;0.30;0.30;;;;;;;;;;6241124;23;20170;-88
2023/06/28 05:28:40;;;;;;;0.30;0.30;;;;;;;;;;6241225;22;20142;-90
2023/06/28 05:31:45;;;;;;;1.15;0.30;;;;;;;;;;6241965;22;20221;-90
2023/06/28 05:34:51;;;;;;;0.20;0.20;;;;;;;;;;6244522;22;20170;-90
2023/06/28 05:37:56;;;;;;;0.20;0.20;;;;;;;;;;6242864;23;20162;-88
2023/06/28 05:41:14;;;;;;;0.30;0.30;;;;;;;;;;6242083;23;20225;-88
2023/06/28 05:44:21;;;;;;;0.20;0.20;;;;;;;;;;6242562;22;20212;-89
2023/06/28 05:47:25;;;;;;;0.35;0.35;;;;;;;;;;6241003;22;20265;-90
2023/06/28 05:50:30;;;;;;;0.40;0.40;;;;;;;;;;6243056;23;20194;-91
2023/06/28 05:53:37;;;;;;;4.82;0.95;;;;;;;;;;6241157;23;20210;-88
2023/06/28 05:56:48;;;;;;;0.30;0.30;;;;;;;;;;6249464;22;20203;-87
2023/06/28 05:59:53;;;;;;;0.25;0.25;;;;;;;;;;6241054;23;20210;-90
2023/06/28 06:02:58;;;;;;;0.50;0.50;;;;;;;;;;6240537;23;20167;-88
2023/06/28 06:06:04;;;;;;;1.23;0.68;;;;;;;;;;6243726;23;20170;-88
2023/06/28 06:09:09;;;;;;;4.00;2.05;;;;;;;;;;6241815;23;20191;-90
2023/06/28 06:12:15;;;;;;;6.72;2.20;;;;;;;;;;6240395;22;20185;-90
2023/06/28 06:15:21;;;;;;;7.65;2.28;;;;;;;;;;6242457;22;20721;-89
2023/06/28 06:18:27;;;;;;;6.85;1.98;;;;;;;;;;6240487;22;20178;-90
2023/06/28 06:21:32;;;;;;;8.32;2.40;;;;;;;;;;6241084;23;20162;-90
2023/06/28 06:24:37;;;;;;;4.68;2.33;;;;;;;;;;6242345;23;20174;-90
2023/06/28 06:27:44;;;;;;;3.97;2.03;;;;;;;;;;6241144;22;20194;-89
2023/06/28 06:30:50;;;;;;;4.97;2.20;;;;;;;;;;6241004;23;20185;-87
2023/06/28 06:34:00;;;;;;;5.50;2.67;;;;;;;;;;6244844;23;20153;-89
2023/06/28 06:37:11;;;;;;;7.78;2.40;;;;;;;;;;6243009;23;20167;-90
2023/06/28 06:40:41;;;;;;;7.05;2.83;;;;;;;;;;6240500;22;20190;-88
2023/06/28 06:43:48;;;;;;;5.47;2.75;;;;;;;;;;6241417;22;20170;-90
2023/06/28 06:46:54;;;;;;;4.15;2.40;;;;;;;;;;6241280;22;20158;-89
2023/06/28 06:49:59;;;;;;;5.78;2.83;;;;;;;;;;6241642;23;20240;-90
2023/06/28 06:53:04;;;;;;;6.50;2.50;;;;;;;;;;6241296;23;20193;-89
2023/06/28 06:56:10;;;;;;;5.43;2.50;;;;;;;;;;6243007;22;20154;-88
2023/06/28 06:59:19;;;;;;;4.18;2.60;;;;;;;;;;6242097;22;20162;-89
2023/06/28 07:02:25;;;;;;;8.25;2.45;;;;;;;;;;6245167;22;20166;-88
2023/06/28 07:05:32;;;;;;;3.47;2.25;;;;;;;;;;6244453;23;20166;-88
2023/06/28 07:08:38;;;;;;;6.43;2.40;;;;;;;;;;6239439;23;20205;-88
2023/06/28 07:11:43;;;;;;;5.80;2.60;;;;;;;;;;6242248;22;20217;-88
2023/06/28 07:14:49;;;;;;;5.85;2.53;;;;;;;;;;6241288;23;20170;-91
2023/06/28 07:17:54;;;;;;;6.43;2.95;;;;;;;;;;6240031;23;20162;-90
2023/06/28 07:21:04;;;;;;;3.30;2.20;;;;;;;;;;6241029;23;20589;-88
2023/06/28 07:24:10;;;;;;;4.00;1.90;;;;;;;;;;6215121;23;20237;-91
2023/06/28 07:27:16;;;;;;;4.97;2.30;;;;;;;;;;6241118;23;20170;-88
2023/06/28 07:30:23;;;;;;;3.67;2.10;;;;;;;;;;6240008;23;20186;-91
2023/06/28 07:33:28;;;;;;;5.70;2.30;;;;;;;;;;6241204;22;20617;-90
2023/06/28 07:36:33;;;;;;;4.50;2.28;;;;;;;;;;6241600;22;20173;-90
2023/06/28 07:40:04;;;;;;;6.40;3.25;;;;;;;;;;6239419;22;20289;-89
2023/06/28 07:43:10;;;;;;;2.30;1.77;;;;;;;;;;6241172;23;20161;-92
2023/06/28 07:46:18;;;;;;;3.63;2.10;;;;;;;;;;6240683;22;20151;-89
2023/06/28 07:49:25;;;;;;;2.80;1.45;;;;;;;;;;6243157;23;20194;-88
2023/06/28 07:52:30;;;;;;;4.22;1.67;;;;;;;;;;6242966;23;20170;-89
2023/06/28 07:55:35;;;;;;;3.50;1.73;;;;;;;;;;6243155;23;20240;-89
2023/06/28 07:58:48;;;;;;;4.20;1.80;;;;;;;;;;6240964;23;20294;-90
2023/06/28 08:01:55;;;;;;;4.18;1.70;;;;;;;;;;6242545;22;20158;-90
2023/06/28 08:05:00;;;;;;;3.20;1.92;;;;;;;;;;6241558;22;20154;-91
2023/06/28 08:08:06;;;;;;;2.38;1.50;;;;;;;;;;6243526;23;20263;-88
2023/06/28 08:11:11;;;;;;;5.40;1.65;;;;;;;;;;6247562;22;20202;-89
2023/06/28 08:14:24;;;;;;;7.60;1.70;;;;;;;;;;6242580;23;20237;-87
2023/06/28 08:17:32;;;;;;;4.72;1.70;;;;;;;;;;6242209;23;20167;-89
2023/06/28 08:21:04;;;;;;;2.10;1.40;;;;;;;;;;6259721;23;20163;-90
2023/06/28 08:24:09;;;;;;;4.40;1.60;;;;;;;;;;6242715;23;20252;-89
2023/06/28 08:27:18;;;;;;;3.53;1.52;;;;;;;;;;6241010;23;20167;-88
2023/06/28 08:30:29;;;;;;;3.63;1.70;;;;;;;;;;6242837;22;20234;-90
2023/06/28 08:33:36;;;;;;;4.22;2.10;;;;;;;;;;6242722;23;20165;-90
2023/06/28 08:36:40;;;;;;;5.15;1.80;;;;;;;;;;6241791;22;20167;-89
2023/06/28 08:39:45;;;;;;;3.20;1.67;;;;;;;;;;6242757;23;20237;-89
2023/06/28 08:42:51;;;;;;;2.72;1.52;;;;;;;;;;6245940;23;20198;-90
2023/06/28 08:45:57;;;;;;;4.18;1.90;;;;;;;;;;6246116;22;20170;-89
2023/06/28 08:49:04;;;;;;;5.53;1.75;;;;;;;;;;6226537;23;20197;-90
2023/06/28 08:52:09;;;;;;;4.70;1.73;;;;;;;;;;6241702;23;20194;-90
2023/06/28 08:55:15;;;;;;;8.85;1.80;;;;;;;;;;6243977;23;20215;-88
2023/06/28 08:58:29;;;;;;;3.38;1.70;;;;;;;;;;6243790;23;20628;-90
2023/06/28 09:01:37;;;;;;;4.95;1.85;;;;;;;;;;6242357;23;20166;-88
2023/06/28 09:04:44;;;;;;;4.15;2.17;;;;;;;;;;6242974;22;20157;-91
2023/06/28 09:07:52;;;;;;;4.78;2.05;;;;;;;;;;6261758;22;20162;-90
2023/06/28 09:10:58;;;;;;;7.25;2.10;;;;;;;;;;6244032;23;20197;-89
2023/06/28 09:14:04;;;;;;;4.40;1.90;;;;;;;;;;6243729;23;20285;-89
2023/06/28 09:17:10;;;;;;;2.65;1.60;;;;;;;;;;6239643;23;20177;-90
2023/06/28 09:20:21;;;;;;;4.65;1.70;;;;;;;;;;6241866;22;20146;-89
2023/06/28 09:23:27;;;;;;;5.50;2.00;;;;;;;;;;6242793;22;20169;-90
2023/06/28 09:26:33;;;;;;;3.30;1.90;;;;;;;;;;6225417;23;20170;-90
2023/06/28 09:29:38;;;;;;;5.78;1.63;;;;;;;;;;6241163;23;20600;-91
2023/06/28 09:32:50;;;;;;;6.03;1.95;;;;;;;;;;6239942;22;20486;-88
2023/06/28 09:35:57;;;;;;;2.55;1.58;;;;;;;;;;6241287;22;20174;-90
2023/06/28 09:39:04;;;;;;;4.82;1.40;;;;;;;;;;6244098;23;20162;-90
2023/06/28 09:42:10;;;;;;;5.90;2.30;;;;;;;;;;6239704;23;20185;-92
2023/06/28 09:45:26;;;;;;;3.42;1.92;;;;;;;;;;6240668;23;20602;-87
2023/06/28 09:48:37;;;;;;;3.55;1.67;;;;;;;;;;6241831;22;20238;-89
2023/06/28 09:51:44;;;;;;;4.60;1.70;;;;;;;;;;6242680;23;20216;-90
2023/06/28 09:54:51;;;;;;;3.80;1.48;;;;;;;;;;6244422;23;20169;-91
2023/06/28 09:58:00;;;;;;;5.43;1.77;;;;;;;;;;6244572;23;20225;-88
2023/06/28 10:01:05;;;;;;;2.38;1.67;;;;;;;;;;6243108;22;20166;-88
2023/06/28 10:04:12;;;;;;;3.22;1.65;;;;;;;;;;6244682;22;20230;-89
2023/06/28 10:07:20;;;;;;;3.22;1.60;;;;;;;;;;6245078;22;20154;-90
2023/06/28 10:10:26;;;;;;;4.68;1.40;;;;;;;;;;6242303;23;20213;-91
2023/06/28 10:13:31;;;;;;;2.50;1.40;;;;;;;;;;6242270;23;20161;-92
2023/06/28 10:16:42;;;;;;;3.25;1.40;;;;;;;;;;6240789;23;20192;-90
2023/06/28 10:19:47;;;;;;;5.22;1.75;;;;;;;;;;6240563;23;20157;-91
2023/06/28 10:22:56;;;;;;;4.75;1.58;;;;;;;;;;6241501;23;20170;-90
2023/06/28 10:26:02;;;;;;;2.42;1.27;;;;;;;;;;6242636;22;20165;-90
2023/06/28 10:29:08;;;;;;;4.53;1.70;;;;;;;;;;6238814;23;20169;-89
2023/06/28 10:32:13;;;;;;;5.35;1.52;;;;;;;;;;6239884;22;20153;-90
2023/06/28 10:35:19;;;;;;;3.13;1.33;;;;;;;;;;6240791;22;20169;-90
2023/06/28 10:38:25;;;;;;;3.92;1.40;;;;;;;;;;6241679;22;20174;-90
2023/06/28 10:41:32;;;;;;;2.92;1.42;;;;;;;;;;6240213;23;20285;-90
2023/06/28 10:44:51;;;;;;;4.30;1.70;;;;;;;;;;6239234;23;20619;-90
2023/06/28 10:47:56;;;;;;;3.88;1.70;;;;;;;;;;6240325;23;20295;-90
2023/06/28 10:51:05;;;;;;;8.00;1.35;;;;;;;;;;6241513;23;20208;-89
2023/06/28 10:54:14;;;;;;;4.60;1.13;;;;;;;;;;6241510;23;20166;-89
2023/06/28 10:57:34;;;;;;;3.95;1.67;;;;;;;;;;6239231;23;20236;-89
2023/06/28 11:00:43;;;;;;;3.05;1.17;;;;;;;;;;6242189;23;20236;-90
2023/06/28 11:03:48;;;;;;;5.20;1.58;;;;;;;;;;6241343;23;20165;-90
2023/06/28 11:07:08;;;;;;;3.85;1.40;;;;;;;;;;6242970;23;20154;-91
2023/06/28 11:10:16;;;;;;;2.22;1.25;;;;;;;;;;6240373;23;20205;-89
2023/06/28 11:13:32;;;;;;;6.28;1.45;;;;;;;;;;6238625;23;20254;-89
2023/06/28 11:16:38;;;;;;;7.07;3.58;;;;;;;;;;6240313;23;20496;-89
2023/06/28 11:19:46;;;;;;;1.15;1.00;;;;;;;;;;6239145;23;20161;-89
2023/06/28 11:22:52;;;;;;;4.03;1.30;;;;;;;;;;6238823;23;20170;-91
2023/06/28 11:26:02;;;;;;;2.53;1.30;;;;;;;;;;6241451;23;20212;-90
2023/06/28 11:29:17;;;;;;;3.08;1.27;;;;;;;;;;6241794;23;20169;-90
2023/06/28 11:32:26;;;;;;;3.78;1.48;;;;;;;;;;6238100;23;20241;-90
2023/06/28 11:35:32;;;;;;;3.67;1.40;;;;;;;;;;6239310;23;20161;-87
2023/06/28 11:38:37;;;;;;;3.08;1.30;;;;;;;;;;6240628;22;20174;-90
2023/06/28 11:41:44;;;;;;;2.45;1.40;;;;;;;;;;6240045;23;20181;-89
2023/06/28 11:44:50;;;;;;;2.88;1.20;;;;;;;;;;6238916;23;20636;-90
2023/06/28 11:47:55;;;;;;;4.40;1.40;;;;;;;;;;6241110;23;20196;-89
2023/06/28 11:51:02;;;;;;;4.55;1.45;;;;;;;;;;6243660;23;20173;-90
2023/06/28 11:54:07;;;;;;;3.67;1.30;;;;;;;;;;6238720;23;20215;-91
2023/06/28 11:57:13;;;;;;;5.07;1.20;;;;;;;;;;6240400;23;20145;-90
2023/06/28 12:00:19;;;;;;;3.63;0.93;;;;;;;;;;6241446;23;20165;-89
2023/06/28 12:03:33;;;;;;;2.72;1.35;;;;;;;;;;6243099;23;20174;-90
2023/06/28 12:06:39;;;;;;;2.30;1.10;;;;;;;;;;6241544;23;20166;-90
2023/06/28 12:09:44;;;;;;;4.07;1.30;;;;;;;;;;6240121;22;20250;-90
2023/06/28 12:12:51;;;;;;;3.38;1.50;;;;;;;;;;6247897;22;20185;-89
2023/06/28 12:15:56;;;;;;;3.67;1.45;;;;;;;;;;6244181;22;20166;-89
2023/06/28 12:19:03;;;;;;;2.53;1.15;;;;;;;;;;6241158;23;20166;-91
2023/06/28 12:22:09;;;;;;;3.00;1.27;;;;;;;;;;6239112;23;20189;-91
2023/06/28 12:25:14;;;;;;;3.70;1.30;;;;;;;;;;6241332;23;20169;-89
2023/06/28 12:28:21;;;;;;;2.83;1.10;;;;;;;;;;6240425;22;20201;-91
2023/06/28 12:31:27;;;;;;;2.15;1.17;;;;;;;;;;6240464;22;20153;-88
2023/06/28 12:34:34;;;;;;;2.92;1.25;;;;;;;;;;6242566;23;20213;-89
2023/06/28 12:37:42;;;;;;;4.13;1.58;;;;;;;;;;6242296;23;20162;-88
2023/06/28 12:40:58;;;;;;;3.20;1.42;;;;;;;;;;6240944;23;20158;-91
2023/06/28 12:44:05;;;;;;;2.13;1.20;;;;;;;;;;6245362;22;20175;-93
2023/06/28 12:47:11;;;;;;;3.10;1.27;;;;;;;;;;6245845;23;20233;-90
2023/06/28 12:50:16;;;;;;;2.58;1.30;;;;;;;;;;6244603;23;20171;-89
2023/06/28 12:53:22;;;;;;;4.60;1.40;;;;;;;;;;6243388;23;20157;-89
2023/06/28 13:00:01;;;;;;;2.40;1.20;;;;;;;;;;6243823;23;20189;-89
2023/06/28 13:03:08;;;;;;;3.20;1.42;;;;;;;;;;6243674;23;20174;-89
2023/06/28 13:06:14;;;;;;;2.40;1.13;;;;;;;;;;6246288;23;20197;-89
2023/06/28 13:09:19;;;;;;;4.32;1.70;;;;;;;;;;6243284;23;20195;-90
2023/06/28 13:12:24;;;;;;;3.67;1.50;;;;;;;;;;6242979;23;20169;-91
2023/06/28 13:15:31;;;;;;;3.25;1.02;;;;;;;;;;6242883;23;20169;-92
2023/06/28 13:18:36;;;;;;;2.92;1.50;;;;;;;;;;6240465;23;20162;-92
2023/06/28 13:21:41;;;;;;;2.45;1.40;;;;;;;;;;6242499;23;20188;-89
2023/06/28 13:24:54;;;;;;;2.75;1.20;;;;;;;;;;6244978;22;20628;-89
2023/06/28 13:27:59;;;;;;;4.18;1.50;;;;;;;;;;6244837;22;20162;-93
2023/06/28 13:31:07;;;;;;;3.67;1.30;;;;;;;;;;6244489;23;20165;-90
2023/06/28 13:34:13;;;;;;;4.57;1.48;;;;;;;;;;6245027;23;20170;-89
2023/06/28 13:37:19;;;;;;;2.90;1.30;;;;;;;;;;6244866;23;20158;-91
2023/06/28 13:40:25;;;;;;;4.35;1.30;;;;;;;;;;6247125;22;20155;-90
2023/06/28 13:43:30;;;;;;;3.67;1.27;;;;;;;;;;6247812;22;20220;-91
2023/06/28 13:46:38;;;;;;;4.20;1.50;;;;;;;;;;6246319;23;20182;-91
2023/06/28 13:49:43;;;;;;;5.72;1.52;;;;;;;;;;6245947;23;20501;-90
2023/06/28 13:52:48;;;;;;;6.40;1.45;;;;;;;;;;6244192;23;20252;-90
2023/06/28 13:55:58;;;;;;;5.05;1.27;;;;;;;;;;6246736;22;20162;-90
2023/06/28 13:59:24;;;;;;;2.33;1.25;;;;;;;;;;6247913;22;20166;-91
2023/06/28 14:02:35;;;;;;;4.95;1.70;;;;;;;;;;6248225;23;20184;-92
2023/06/28 14:05:41;;;;;;;1.95;1.10;;;;;;;;;;6245368;22;20161;-89
2023/06/28 14:08:48;;;;;;;2.10;1.20;;;;;;;;;;6245121;22;20205;-89
2023/06/28 14:11:54;;;;;;;2.90;1.40;;;;;;;;;;6246095;23;20232;-90
2023/06/28 14:14:59;;;;;;;3.85;1.40;;;;;;;;;;6244944;22;20162;-91
2023/06/28 14:18:06;;;;;;;2.28;1.40;;;;;;;;;;6245106;23;20217;-90
2023/06/28 14:21:12;;;;;;;4.45;1.67;;;;;;;;;;6244477;23;20661;-89
2023/06/28 14:24:17;;;;;;;2.97;1.27;;;;;;;;;;6245983;22;20169;-89
2023/06/28 14:27:23;;;;;;;5.32;1.50;;;;;;;;;;6228253;22;20149;-93
2023/06/28 14:30:28;;;;;;;4.75;1.33;;;;;;;;;;6246306;23;20161;-89
2023/06/28 14:33:36;;;;;;;5.30;1.40;;;;;;;;;;6249171;23;20170;-90
2023/06/28 14:36:41;;;;;;;3.67;1.50;;;;;;;;;;6248502;23;20218;-90
2023/06/28 14:40:19;;;;;;;3.53;1.50;;;;;;;;;;6246925;23;20189;-93
2023/06/28 14:43:25;;;;;;;3.33;1.30;;;;;;;;;;6247854;23;20188;-89
2023/06/28 14:46:32;;;;;;;4.63;1.35;;;;;;;;;;6264555;22;20177;-89
2023/06/28 14:49:38;;;;;;;6.07;1.50;;;;;;;;;;6244875;22;20166;-91
2023/06/28 14:52:43;;;;;;;2.78;1.30;;;;;;;;;;6264438;23;20628;-90
2023/06/28 14:55:48;;;;;;;5.55;1.70;;;;;;;;;;6242170;23;20181;-89
2023/06/28 14:59:01;;;;;;;3.72;1.55;;;;;;;;;;6242408;23;20167;-91
2023/06/28 15:02:06;;;;;;;5.82;1.30;;;;;;;;;;6243107;23;20190;-88
2023/06/28 15:05:13;;;;;;;3.35;1.40;;;;;;;;;;6242097;23;20162;-90
2023/06/28 15:08:19;;;;;;;7.47;1.50;;;;;;;;;;6242938;22;20210;-90
2023/06/28 15:11:24;;;;;;;3.28;1.42;;;;;;;;;;6241536;23;20162;-91
2023/06/28 15:14:29;;;;;;;2.53;1.67;;;;;;;;;;6242397;22;20163;-91
2023/06/28 15:17:35;;;;;;;5.00;1.50;;;;;;;;;;6243936;23;20169;-89
2023/06/28 15:21:17;;;;;;;2.85;1.35;;;;;;;;;;6244978;23;20158;-89
2023/06/28 15:24:24;;;;;;;9.10;6.05;;;;;;;;;;6243758;23;20479;-91
2023/06/28 15:27:29;;;;;;;5.75;1.30;;;;;;;;;;6242071;23;20161;-89
2023/06/28 15:30:35;;;;;;;3.70;1.40;;;;;;;;;;6242189;22;20178;-93
2023/06/28 15:33:40;;;;;;;1.63;1.13;;;;;;;;;;6241496;23;20217;-89
2023/06/28 15:36:50;;;;;;;3.20;1.50;;;;;;;;;;6242654;23;20177;-92
2023/06/28 15:39:57;;;;;;;4.32;1.42;;;;;;;;;;6240356;23;20205;-90
2023/06/28 15:43:03;;;;;;;4.18;1.50;;;;;;;;;;6242182;23;20182;-89
2023/06/28 15:46:14;;;;;;;2.97;1.40;;;;;;;;;;6241801;22;20279;-90
2023/06/28 15:49:23;;;;;;;5.53;1.52;;;;;;;;;;6244246;23;20230;-91
2023/06/28 15:52:30;;;;;;;3.00;1.35;;;;;;;;;;6242989;23;20167;-90
2023/06/28 15:55:40;;;;;;;2.50;1.35;;;;;;;;;;6242341;23;20186;-91
2023/06/28 16:02:13;;;;;;;6.90;1.75;;;;;;;;;;6245343;22;20206;-88
2023/06/28 16:08:39;;;;;;;7.40;2.78;;;;;;;;;;6247445;23;20170;-91
2023/06/28 16:15:07;;;;;;;2.88;1.30;;;;;;;;;;6246657;23;20174;-89
2023/06/28 22:03:25;;;;;;;7.57;3.30;;;;;;;;;;6226152;22;20215;-88
2023/06/28 22:06:34;;;;;;;5.82;3.35;;;;;;;;;;6239289;23;20158;-90
2023/06/28 22:09:39;;;;;;;7.47;3.50;;;;;;;;;;6241043;22;20722;-92
2023/06/28 22:12:45;;;;;;;7.10;3.45;;;;;;;;;;6239008;23;20404;-91
2023/06/28 22:15:50;;;;;;;10.20;3.90;;;;;;;;;;6240827;23;20189;-90
2023/06/28 22:18:57;;;;;;;7.78;3.20;;;;;;;;;;6240106;23;20183;-87
2023/06/28 22:22:02;;;;;;;5.68;3.47;;;;;;;;;;6241446;22;20150;-89
2023/06/28 22:25:10;;;;;;;9.60;3.75;;;;;;;;;;6241923;23;20174;-91
2023/06/28 22:28:16;;;;;;;7.05;4.10;;;;;;;;;;6240429;23;20254;-93
2023/06/28 22:31:24;;;;;;;8.60;4.30;;;;;;;;;;6240461;23;20210;-89
2023/06/28 22:34:31;;;;;;;9.57;4.20;;;;;;;;;;6238244;23;20171;-89
2023/06/28 22:37:36;;;;;;;10.70;3.88;;;;;;;;;;6240983;23;20215;-90
2023/06/28 22:40:46;;;;;;;7.60;3.95;;;;;;;;;;6239893;23;20166;-91
2023/06/28 22:43:52;;;;;;;7.57;3.60;;;;;;;;;;6240066;23;20317;-88
2023/06/28 22:46:57;;;;;;;8.60;3.75;;;;;;;;;;6239839;23;20167;-90
2023/06/28 22:50:06;;;;;;;6.30;3.80;;;;;;;;;;6238365;23;20170;-90
2023/06/28 22:53:11;;;;;;;7.05;3.90;;;;;;;;;;6238794;22;20193;-90
2023/06/28 22:56:17;;;;;;;7.95;4.03;;;;;;;;;;6239911;22;20181;-88
2023/06/28 22:59:23;;;;;;;7.18;3.50;;;;;;;;;;6240244;23;20170;-91
2023/06/28 23:02:29;;;;;;;5.10;3.33;;;;;;;;;;6241279;23;20282;-89
2023/06/28 23:05:38;;;;;;;6.05;3.40;;;;;;;;;;6240495;23;20158;-89
2023/06/28 23:08:43;;;;;;;6.07;3.20;;;;;;;;;;6242507;22;20158;-89
2023/06/28 23:11:51;;;;;;;5.93;3.40;;;;;;;;;;6242156;22;20166;-92
2023/06/28 23:14:56;;;;;;;7.50;3.17;;;;;;;;;;6241911;23;20174;-88
2023/06/28 23:18:01;;;;;;;10.45;3.50;;;;;;;;;;6240871;23;20237;-89
2023/06/28 23:21:13;;;;;;;7.72;3.00;;;;;;;;;;6242197;23;20281;-90
2023/06/28 23:24:19;;;;;;;7.60;3.65;;;;;;;;;;6241196;23;20174;-90
2023/06/28 23:27:24;;;;;;;8.63;3.50;;;;;;;;;;6257994;22;20618;-88
2023/06/28 23:30:29;;;;;;;5.30;3.28;;;;;;;;;;6240676;23;20610;-90
2023/06/28 23:33:37;;;;;;;8.48;3.55;;;;;;;;;;6239904;23;20205;-88
2023/06/28 23:36:44;;;;;;;6.10;3.40;;;;;;;;;;6240645;23;20169;-88
2023/06/28 23:39:49;;;;;;;9.15;3.70;;;;;;;;;;6239927;22;20174;-88
2023/06/28 23:42:54;;;;;;;6.88;3.53;;;;;;;;;;6241177;22;20171;-89
2023/06/28 23:46:02;;;;;;;7.18;3.35;;;;;;;;;;6241856;23;20285;-92
2023/06/28 23:49:08;;;;;;;8.85;3.30;;;;;;;;;;6239191;23;20237;-88
2023/06/28 23:52:15;;;;;;;7.72;3.78;;;;;;;;;;6239880;23;20170;-90
2023/06/28 23:55:21;;;;;;;6.55;3.35;;;;;;;;;;6239171;22;20492;-92
2023/06/28 23:58:26;;;;;;;6.95;3.38;;;;;;;;;;6237650;23;20278;-90
